Time;durP1;ratioP1;P1;durP2;ratioP2;P2;SDS_P1;SDS_P2;PMS_P1;PMS_P2;Temp;Humidity;BMP_temperature;BMP_pressure;BME280_temperature;BME280_humidity;BME280_pressure;Samples;Min_cycle;Max_cycle;Signal;HPM_P1;HPM_P2
2021/07/01 00:01:53;;;;;;;0.30;0.30;;;17.20;99.90;;;;;;5061378;28;20244;-85
2021/07/01 00:04:20;;;;;;;0.50;0.50;;;17.10;99.90;;;;;;5058045;28;20220;-85
2021/07/01 00:06:45;;;;;;;0.33;0.33;;;17.10;99.90;;;;;;5080400;28;20206;-85
2021/07/01 00:09:15;;;;;;;0.50;0.50;;;17.00;99.90;;;;;;5061894;28;20187;-85
2021/07/01 00:11:45;;;;;;;0.57;0.23;;;17.00;99.90;;;;;;5060080;28;20188;-85
2021/07/01 00:14:20;;;;;;;0.10;0.10;;;17.00;99.90;;;;;;5077576;28;20200;-85
2021/07/01 00:16:51;;;;;;;0.20;0.20;;;17.10;99.90;;;;;;5059135;28;20564;-87
2021/07/01 00:19:17;;;;;;;0.40;0.40;;;17.10;99.90;;;;;;5045587;28;20211;-85
2021/07/01 00:21:43;;;;;;;0.43;0.43;;;17.10;99.90;;;;;;5074877;28;20199;-85
2021/07/01 00:24:09;;;;;;;0.20;0.20;;;17.10;99.90;;;;;;5072024;28;20227;-86
2021/07/01 00:26:34;;;;;;;0.63;0.40;;;17.20;99.90;;;;;;5053769;28;20192;-86
2021/07/01 00:29:00;;;;;;;0.10;0.10;;;17.10;99.90;;;;;;5061300;28;20198;-86
2021/07/01 00:31:25;;;;;;;0.17;0.17;;;17.10;99.90;;;;;;5071527;28;20198;-85
2021/07/01 00:33:51;;;;;;;0.20;0.20;;;17.10;99.90;;;;;;5058981;28;20226;-85
2021/07/01 00:36:17;;;;;;;1.23;0.53;;;17.00;99.90;;;;;;5072371;28;20191;-87
2021/07/01 00:38:42;;;;;;;0.27;0.10;;;17.00;99.90;;;;;;5072192;28;20198;-85
2021/07/01 00:41:08;;;;;;;0.20;0.20;;;17.10;99.90;;;;;;5058453;28;20199;-85
2021/07/01 00:43:33;;;;;;;0.10;0.10;;;17.20;99.90;;;;;;5081908;28;20205;-88
2021/07/01 00:46:00;;;;;;;0.20;0.20;;;17.20;99.90;;;;;;5076978;28;20177;-88
2021/07/01 00:48:26;;;;;;;0.30;0.30;;;17.20;99.90;;;;;;5093453;28;20238;-87
2021/07/01 00:50:53;;;;;;;0.20;0.20;;;17.20;99.90;;;;;;5082932;28;20184;-86
2021/07/01 00:53:19;;;;;;;0.10;0.10;;;17.20;99.90;;;;;;5069586;28;20201;-85
2021/07/01 00:55:45;;;;;;;0.37;0.30;;;17.10;99.90;;;;;;5079832;28;20191;-86
2021/07/01 00:58:11;;;;;;;0.50;0.40;;;17.00;99.90;;;;;;5070664;28;20279;-85
2021/07/01 01:00:47;;;;;;;0.47;0.30;;;17.10;99.90;;;;;;5067843;28;20184;-85
2021/07/01 01:03:13;;;;;;;0.20;0.20;;;17.00;99.90;;;;;;5062310;28;20184;-85
2021/07/01 01:05:39;;;;;;;0.27;0.27;;;17.00;99.90;;;;;;5068861;28;20187;-85
2021/07/01 01:08:04;;;;;;;0.20;0.20;;;17.00;99.90;;;;;;5061159;28;20269;-85
2021/07/01 01:10:30;;;;;;;0.20;0.20;;;17.00;99.90;;;;;;5059989;28;20180;-85
2021/07/01 01:12:56;;;;;;;0.20;0.20;;;16.90;99.90;;;;;;5063793;28;20188;-85
2021/07/01 01:15:22;;;;;;;0.20;0.20;;;16.80;99.90;;;;;;5072693;28;20211;-85
2021/07/01 01:17:47;;;;;;;0.67;0.67;;;16.80;99.90;;;;;;5066335;28;20183;-85
2021/07/01 01:20:14;;;;;;;0.20;0.20;;;16.80;99.90;;;;;;5086798;28;20184;-85
2021/07/01 01:22:40;;;;;;;0.20;0.20;;;16.80;99.90;;;;;;5061974;28;20184;-85
2021/07/01 01:25:06;;;;;;;0.20;0.20;;;16.80;99.90;;;;;;5074092;28;20212;-85
2021/07/01 01:27:32;;;;;;;0.20;0.20;;;16.80;99.90;;;;;;5054470;28;20291;-85
2021/07/01 01:30:00;;;;;;;0.27;0.20;;;16.70;99.90;;;;;;5075464;28;20265;-86
2021/07/01 01:32:25;;;;;;;0.20;0.20;;;16.70;99.90;;;;;;5055415;28;20434;-85
2021/07/01 01:34:51;;;;;;;0.20;0.20;;;16.60;99.90;;;;;;5066610;28;20199;-85
2021/07/01 01:37:17;;;;;;;0.10;0.10;;;16.60;99.90;;;;;;5073027;28;20194;-85
2021/07/01 01:39:48;;;;;;;0.10;0.10;;;16.70;99.90;;;;;;5074349;28;20193;-85
2021/07/01 01:42:13;;;;;;;0.30;0.17;;;16.60;99.90;;;;;;5063745;28;20191;-84
2021/07/01 01:44:39;;;;;;;0.30;0.20;;;16.70;99.90;;;;;;5075297;28;20196;-85
2021/07/01 01:47:15;;;;;;;0.10;0.10;;;16.70;99.90;;;;;;5059047;28;20225;-85
2021/07/01 01:49:49;;;;;;;0.30;0.30;;;16.60;99.90;;;;;;5074843;28;20268;-85
2021/07/01 01:52:15;;;;;;;0.10;0.10;;;16.50;99.90;;;;;;5060061;28;20181;-85
2021/07/01 01:54:41;;;;;;;0.10;0.10;;;16.50;99.90;;;;;;5060986;28;20243;-85
2021/07/01 01:57:07;;;;;;;0.10;0.10;;;16.50;99.90;;;;;;5054734;28;20655;-85
2021/07/01 01:59:33;;;;;;;0.10;0.10;;;16.50;99.90;;;;;;5076311;28;20192;-85
2021/07/01 02:01:59;;;;;;;0.10;0.10;;;16.40;99.90;;;;;;5069478;28;20191;-85
2021/07/01 02:04:25;;;;;;;0.20;0.20;;;16.40;99.90;;;;;;5071867;28;20625;-85
2021/07/01 02:06:54;;;;;;;0.10;0.10;;;16.30;99.90;;;;;;5054985;28;20626;-85
2021/07/01 02:09:20;;;;;;;0.23;0.20;;;16.30;99.90;;;;;;5053897;28;20183;-85
2021/07/01 02:11:46;;;;;;;0.10;0.10;;;16.30;99.90;;;;;;5063426;28;20183;-85
2021/07/01 02:14:11;;;;;;;0.30;0.30;;;16.30;99.90;;;;;;5075169;28;20206;-85
2021/07/01 02:16:37;;;;;;;0.40;0.40;;;16.30;99.90;;;;;;5070259;28;20177;-86
2021/07/01 02:19:03;;;;;;;0.10;0.10;;;16.30;99.90;;;;;;5060402;28;20710;-86
2021/07/01 02:21:29;;;;;;;0.10;0.10;;;16.30;99.90;;;;;;5065779;28;20194;-85
2021/07/01 02:23:54;;;;;;;0.10;0.10;;;16.20;99.90;;;;;;5070286;28;20209;-86
2021/07/01 02:26:20;;;;;;;0.20;0.20;;;16.10;99.90;;;;;;5052316;28;20183;-84
2021/07/01 02:28:46;;;;;;;0.10;0.10;;;16.10;99.90;;;;;;5049410;28;21982;-85
2021/07/01 02:31:11;;;;;;;0.00;0.00;;;16.10;99.90;;;;;;5062948;28;20197;-85
2021/07/01 02:33:37;;;;;;;0.00;0.00;;;16.20;99.90;;;;;;5070101;28;20198;-85
2021/07/01 02:36:03;;;;;;;0.30;0.30;;;16.20;99.90;;;;;;5055494;28;20201;-85
2021/07/01 02:38:28;;;;;;;0.10;0.10;;;16.30;99.90;;;;;;5053479;28;20194;-85
2021/07/01 02:40:54;;;;;;;0.20;0.20;;;16.30;99.90;;;;;;5072858;28;20543;-85
2021/07/01 02:43:20;;;;;;;0.10;0.10;;;16.20;99.90;;;;;;5056104;28;20196;-85
2021/07/01 02:45:45;;;;;;;0.30;0.30;;;16.10;99.90;;;;;;5057048;28;20182;-85
2021/07/01 02:48:11;;;;;;;0.70;0.33;;;16.10;99.90;;;;;;5070666;28;20267;-85
2021/07/01 02:50:37;;;;;;;0.77;0.20;;;16.10;99.90;;;;;;5067910;28;20191;-85
2021/07/01 02:53:02;;;;;;;0.20;0.20;;;16.10;99.90;;;;;;5055909;28;20218;-85
2021/07/01 02:55:28;;;;;;;0.30;0.30;;;16.10;99.90;;;;;;5070813;28;20187;-85
2021/07/01 02:57:53;;;;;;;0.20;0.20;;;16.10;99.90;;;;;;5051117;28;20565;-84
2021/07/01 03:00:19;;;;;;;0.30;0.30;;;16.00;99.90;;;;;;5073206;28;20196;-85
2021/07/01 03:02:45;;;;;;;0.30;0.30;;;16.00;99.90;;;;;;5069715;28;20258;-85
2021/07/01 03:05:11;;;;;;;0.10;0.10;;;16.00;99.90;;;;;;5070288;28;20745;-85
2021/07/01 03:07:36;;;;;;;0.23;0.10;;;16.00;99.90;;;;;;5054371;28;20225;-85
2021/07/01 03:10:04;;;;;;;0.13;0.13;;;16.00;99.90;;;;;;5058137;28;20276;-85
2021/07/01 03:12:29;;;;;;;0.10;0.10;;;16.10;99.90;;;;;;5054046;28;20184;-85
2021/07/01 03:14:55;;;;;;;0.20;0.20;;;16.10;99.90;;;;;;5053690;28;20209;-85
2021/07/01 03:17:21;;;;;;;0.20;0.20;;;16.20;99.90;;;;;;5053777;28;20194;-86
2021/07/01 03:19:46;;;;;;;0.10;0.10;;;16.20;99.90;;;;;;5070101;28;20190;-85
2021/07/01 03:22:12;;;;;;;0.20;0.20;;;16.20;99.90;;;;;;5055344;28;20236;-85
2021/07/01 03:24:38;;;;;;;0.20;0.20;;;16.30;99.90;;;;;;5053615;28;20252;-85
2021/07/01 03:27:04;;;;;;;0.20;0.20;;;16.30;99.90;;;;;;5051284;28;20284;-84
2021/07/01 03:29:30;;;;;;;0.93;0.93;;;16.30;99.90;;;;;;5056628;28;20193;-85
2021/07/01 03:31:56;;;;;;;0.30;0.30;;;16.40;99.90;;;;;;5051027;28;20213;-85
2021/07/01 03:34:22;;;;;;;0.20;0.20;;;16.40;99.90;;;;;;5070232;28;20623;-85
2021/07/01 03:36:48;;;;;;;0.20;0.20;;;16.40;99.90;;;;;;5066082;28;20187;-85
2021/07/01 03:39:14;;;;;;;0.33;0.33;;;16.40;99.90;;;;;;5045673;28;20185;-87
2021/07/01 03:41:39;;;;;;;0.23;0.23;;;16.50;99.90;;;;;;5067771;28;20172;-88
2021/07/01 03:44:09;;;;;;;0.10;0.10;;;16.50;99.90;;;;;;5067388;28;20210;-89
2021/07/01 03:46:34;;;;;;;0.17;0.17;;;16.50;99.90;;;;;;5050799;28;20184;-86
2021/07/01 03:49:00;;;;;;;0.20;0.20;;;16.50;99.90;;;;;;5069145;28;20620;-86
2021/07/01 03:51:26;;;;;;;0.20;0.20;;;16.50;99.90;;;;;;5041386;28;20231;-87
2021/07/01 03:53:51;;;;;;;0.20;0.20;;;16.50;99.90;;;;;;5052483;28;20221;-86
2021/07/01 03:56:17;;;;;;;0.10;0.10;;;16.40;99.90;;;;;;5065942;28;20182;-86
2021/07/01 03:58:43;;;;;;;1.60;0.30;;;16.40;99.90;;;;;;5051965;28;20230;-86
2021/07/01 04:01:09;;;;;;;0.10;0.10;;;16.50;99.90;;;;;;5065358;28;20192;-86
2021/07/01 04:03:45;;;;;;;0.47;0.20;;;16.30;99.90;;;;;;5074578;28;20207;-86
2021/07/01 04:06:11;;;;;;;0.10;0.10;;;16.30;99.90;;;;;;5059365;28;20227;-86
2021/07/01 04:08:38;;;;;;;0.10;0.10;;;16.30;99.90;;;;;;5068315;28;20203;-86
2021/07/01 04:11:06;;;;;;;0.10;0.10;;;16.30;99.90;;;;;;5052912;28;20206;-86
2021/07/01 04:13:32;;;;;;;0.83;0.20;;;16.40;99.90;;;;;;5052777;28;20223;-86
2021/07/01 04:15:57;;;;;;;0.53;0.20;;;16.40;99.90;;;;;;5067077;28;20174;-86
2021/07/01 04:18:23;;;;;;;0.10;0.10;;;16.50;99.90;;;;;;5055072;28;20193;-86
2021/07/01 04:20:49;;;;;;;0.10;0.10;;;16.50;99.90;;;;;;5067427;28;20244;-86
2021/07/01 04:23:14;;;;;;;0.50;0.40;;;16.50;99.90;;;;;;5067248;28;20188;-86
2021/07/01 04:25:40;;;;;;;0.17;0.17;;;16.50;99.90;;;;;;5072681;28;20672;-86
2021/07/01 04:28:06;;;;;;;0.10;0.10;;;16.60;99.90;;;;;;5068554;28;20206;-86
2021/07/01 04:30:31;;;;;;;0.20;0.20;;;16.60;99.90;;;;;;5059079;28;21081;-86
2021/07/01 04:32:57;;;;;;;0.40;0.40;;;16.60;99.90;;;;;;5059553;28;20174;-86
2021/07/01 04:35:23;;;;;;;0.23;0.23;;;16.60;99.90;;;;;;5074666;28;20211;-85
2021/07/01 04:37:48;;;;;;;0.20;0.20;;;16.60;99.90;;;;;;5062129;28;20223;-87
2021/07/01 04:40:14;;;;;;;0.30;0.30;;;16.60;99.90;;;;;;5050917;28;20184;-86
2021/07/01 04:42:40;;;;;;;0.40;0.20;;;16.60;99.90;;;;;;5057207;28;20237;-86
2021/07/01 04:45:08;;;;;;;0.10;0.10;;;16.60;99.90;;;;;;5058259;28;20717;-87
2021/07/01 04:47:34;;;;;;;0.60;0.60;;;16.50;99.90;;;;;;5060457;28;20195;-88
2021/07/01 04:50:02;;;;;;;0.10;0.10;;;16.50;99.90;;;;;;5067635;28;20232;-87
2021/07/01 04:52:28;;;;;;;0.30;0.30;;;16.50;99.90;;;;;;5079902;28;20726;-88
2021/07/01 04:54:54;;;;;;;0.27;0.27;;;16.40;99.90;;;;;;5088064;28;20229;-87
2021/07/01 04:57:20;;;;;;;0.30;0.27;;;16.40;99.90;;;;;;5092109;28;20275;-88
2021/07/01 04:59:46;;;;;;;0.20;0.20;;;16.40;99.90;;;;;;5071129;28;20269;-85
2021/07/01 05:02:11;;;;;;;0.20;0.20;;;16.40;99.90;;;;;;5057170;28;20209;-85
2021/07/01 05:04:37;;;;;;;0.10;0.10;;;16.40;99.90;;;;;;5060939;28;20702;-85
2021/07/01 05:07:03;;;;;;;0.10;0.10;;;16.40;99.90;;;;;;5071606;28;20225;-85
2021/07/01 05:09:28;;;;;;;1.33;0.20;;;16.30;99.90;;;;;;5064447;28;20603;-85
2021/07/01 05:11:54;;;;;;;0.27;0.27;;;16.30;99.90;;;;;;5082480;28;20183;-85
2021/07/01 05:14:21;;;;;;;0.17;0.17;;;16.30;99.90;;;;;;5088703;28;20672;-85
2021/07/01 05:16:47;;;;;;;0.20;0.20;;;16.20;99.90;;;;;;5059065;28;20175;-88
2021/07/01 05:19:14;;;;;;;0.30;0.30;;;16.30;99.90;;;;;;5059538;28;20184;-87
2021/07/01 05:21:40;;;;;;;0.27;0.27;;;16.30;99.90;;;;;;5066972;28;20600;-88
2021/07/01 05:24:06;;;;;;;0.20;0.20;;;16.30;99.90;;;;;;5059753;28;20547;-90
2021/07/01 05:26:31;;;;;;;0.43;0.43;;;16.20;99.90;;;;;;5064919;28;20188;-88
2021/07/01 05:28:57;;;;;;;0.10;0.10;;;16.30;99.90;;;;;;5068673;28;20682;-85
2021/07/01 05:31:22;;;;;;;0.20;0.20;;;16.30;99.90;;;;;;5075243;28;20277;-86
2021/07/01 05:33:48;;;;;;;0.03;0.03;;;16.30;99.90;;;;;;5058258;28;20202;-86
2021/07/01 05:36:14;;;;;;;0.50;0.30;;;16.20;99.90;;;;;;5089646;28;20188;-86
2021/07/01 05:38:40;;;;;;;0.20;0.20;;;16.20;99.90;;;;;;5064006;28;20202;-86
2021/07/01 05:41:16;;;;;;;0.30;0.30;;;16.30;99.90;;;;;;5050993;28;20191;-86
2021/07/01 05:43:42;;;;;;;0.17;0.17;;;16.20;99.90;;;;;;5069673;28;20217;-86
2021/07/01 05:46:07;;;;;;;0.73;0.17;;;16.20;99.90;;;;;;5078689;28;20194;-86
2021/07/01 05:48:33;;;;;;;0.20;0.20;;;16.20;99.90;;;;;;5066255;28;20658;-86
2021/07/01 05:51:04;;;;;;;0.20;0.20;;;16.20;99.90;;;;;;5060025;28;20188;-86
2021/07/01 05:53:39;;;;;;;0.20;0.20;;;16.20;99.90;;;;;;5070580;28;20213;-86
2021/07/01 05:56:05;;;;;;;0.37;0.30;;;16.20;99.90;;;;;;5069088;28;20195;-86
2021/07/01 05:58:30;;;;;;;0.40;0.40;;;16.20;99.90;;;;;;5070379;28;20186;-85
2021/07/01 06:00:56;;;;;;;0.27;0.27;;;16.20;99.90;;;;;;5052240;28;20280;-85
2021/07/01 06:03:22;;;;;;;0.20;0.20;;;16.10;99.90;;;;;;5056537;28;20566;-83
2021/07/01 06:05:57;;;;;;;0.10;0.10;;;16.20;99.90;;;;;;5086929;28;20181;-86
2021/07/01 06:08:27;;;;;;;0.10;0.10;;;16.20;99.90;;;;;;5066467;28;20221;-86
2021/07/01 06:11:01;;;;;;;0.20;0.20;;;16.30;99.90;;;;;;5068439;28;20544;-86
2021/07/01 06:13:29;;;;;;;0.40;0.40;;;16.50;99.90;;;;;;5067502;28;20220;-86
2021/07/01 06:15:57;;;;;;;0.40;0.40;;;16.50;99.90;;;;;;5069298;28;20199;-86
2021/07/01 06:18:31;;;;;;;0.30;0.30;;;16.60;99.90;;;;;;5060418;28;20195;-86
2021/07/01 06:20:57;;;;;;;0.30;0.20;;;16.70;99.90;;;;;;5061249;28;20195;-86
2021/07/01 06:23:23;;;;;;;0.10;0.10;;;16.70;99.90;;;;;;5070009;28;20686;-89
2021/07/01 06:25:49;;;;;;;0.37;0.27;;;16.70;99.90;;;;;;5060109;28;20186;-86
2021/07/01 06:28:16;;;;;;;0.23;0.20;;;16.80;99.90;;;;;;5076531;28;20309;-87
2021/07/01 06:30:46;;;;;;;0.30;0.30;;;16.70;99.90;;;;;;5055815;28;20663;-86
2021/07/01 06:33:13;;;;;;;0.20;0.20;;;16.70;99.90;;;;;;5058715;28;20642;-87
2021/07/01 06:35:46;;;;;;;0.20;0.20;;;16.70;99.90;;;;;;5052171;28;20184;-86
2021/07/01 06:38:15;;;;;;;0.57;0.27;;;16.70;99.90;;;;;;5045177;28;20202;-85
2021/07/01 06:40:41;;;;;;;0.10;0.10;;;16.80;99.90;;;;;;5048014;28;20188;-86
2021/07/01 06:43:07;;;;;;;0.10;0.10;;;16.70;99.90;;;;;;5054107;28;20222;-84
2021/07/01 06:45:33;;;;;;;0.20;0.20;;;17.00;99.90;;;;;;5070188;28;20284;-84
2021/07/01 06:48:02;;;;;;;0.20;0.20;;;17.10;99.90;;;;;;5071447;28;20202;-86
2021/07/01 06:50:29;;;;;;;0.30;0.30;;;17.20;99.90;;;;;;5054314;28;20186;-85
2021/07/01 06:52:56;;;;;;;0.30;0.30;;;17.40;99.90;;;;;;5058809;28;20205;-86
2021/07/01 06:55:23;;;;;;;0.20;0.20;;;17.70;99.90;;;;;;5064447;28;20219;-86
2021/07/01 06:57:49;;;;;;;0.33;0.30;;;18.00;99.90;;;;;;5067277;28;20215;-86
2021/07/01 07:00:18;;;;;;;0.27;0.27;;;18.40;99.90;;;;;;5068172;28;20233;-86
2021/07/01 07:02:44;;;;;;;0.33;0.17;;;18.40;99.90;;;;;;5057837;28;20283;-86
2021/07/01 07:05:16;;;;;;;0.13;0.13;;;18.50;99.90;;;;;;5060720;28;20295;-86
2021/07/01 07:07:45;;;;;;;1.50;0.70;;;18.50;99.90;;;;;;5068706;28;20269;-86
2021/07/01 07:10:14;;;;;;;0.17;0.17;;;18.60;99.90;;;;;;5078421;28;20709;-85
2021/07/01 07:12:41;;;;;;;0.20;0.20;;;18.50;99.90;;;;;;5059704;28;20184;-88
2021/07/01 07:15:25;;;;;;;0.27;0.23;;;18.30;99.90;;;;;;5072033;28;20261;-86
2021/07/01 07:17:52;;;;;;;0.00;0.00;;;18.20;99.90;;;;;;5073403;28;20196;-86
2021/07/01 07:20:22;;;;;;;0.33;0.17;;;18.30;99.90;;;;;;5057228;28;20196;-85
2021/07/01 07:22:50;;;;;;;0.10;0.10;;;18.40;99.90;;;;;;5073453;28;20192;-86
2021/07/01 07:25:16;;;;;;;0.20;0.20;;;18.60;99.90;;;;;;5061718;28;20584;-85
2021/07/01 07:28:03;;;;;;;0.10;0.10;;;18.70;99.90;;;;;;5053981;28;20208;-85
2021/07/01 07:30:32;;;;;;;0.20;0.20;;;18.80;99.90;;;;;;5048883;28;20188;-84
2021/07/01 07:33:03;;;;;;;0.20;0.20;;;18.90;99.90;;;;;;5048318;28;20270;-85
2021/07/01 07:35:29;;;;;;;0.20;0.20;;;19.00;99.90;;;;;;5076560;28;20315;-82
2021/07/01 07:37:55;;;;;;;0.10;0.10;;;19.10;99.90;;;;;;5063489;28;20206;-84
2021/07/01 07:40:21;;;;;;;0.17;0.17;;;19.10;99.90;;;;;;5064567;28;20189;-84
2021/07/01 07:42:47;;;;;;;0.10;0.10;;;19.20;99.90;;;;;;5080198;28;20197;-83
2021/07/01 07:45:14;;;;;;;3.50;0.30;;;19.40;99.90;;;;;;5069912;28;20246;-83
2021/07/01 07:47:40;;;;;;;0.10;0.10;;;19.40;99.90;;;;;;5063136;28;20207;-85
2021/07/01 07:50:07;;;;;;;0.10;0.10;;;19.50;99.90;;;;;;5069352;28;20683;-85
2021/07/01 07:52:34;;;;;;;0.27;0.20;;;19.20;99.90;;;;;;5073724;28;20185;-85
2021/07/01 07:55:05;;;;;;;0.10;0.10;;;19.00;99.90;;;;;;5065570;28;20310;-85
2021/07/01 07:57:33;;;;;;;0.20;0.20;;;19.00;99.90;;;;;;5052164;28;20191;-86
2021/07/01 07:59:59;;;;;;;0.23;0.23;;;18.90;99.90;;;;;;5054290;28;20242;-87
2021/07/01 08:02:47;;;;;;;0.10;0.10;;;19.00;99.90;;;;;;5047586;28;20185;-84
2021/07/01 08:05:23;;;;;;;0.33;0.33;;;19.30;99.90;;;;;;5059444;28;20305;-84
2021/07/01 08:07:50;;;;;;;0.20;0.17;;;19.20;99.90;;;;;;5070759;28;20288;-83
2021/07/01 08:10:18;;;;;;;0.20;0.20;;;19.10;99.90;;;;;;5056444;28;20216;-84
2021/07/01 08:12:49;;;;;;;0.10;0.10;;;19.10;99.90;;;;;;5078757;28;20175;-86
2021/07/01 08:15:18;;;;;;;0.20;0.20;;;19.10;99.90;;;;;;5062302;28;20268;-85
2021/07/01 08:17:46;;;;;;;0.10;0.10;;;19.00;99.90;;;;;;5071706;28;20182;-87
2021/07/01 08:20:17;;;;;;;0.53;0.20;;;19.00;99.90;;;;;;5056343;28;20563;-85
2021/07/01 08:22:48;;;;;;;0.13;0.13;;;19.00;99.90;;;;;;5078702;28;20198;-86
2021/07/01 08:25:15;;;;;;;0.10;0.10;;;19.00;99.90;;;;;;5053894;28;20213;-88
2021/07/01 08:27:42;;;;;;;0.10;0.10;;;19.10;99.90;;;;;;5068015;28;20204;-89
2021/07/01 08:30:09;;;;;;;0.20;0.20;;;19.10;99.90;;;;;;5078804;28;20173;-90
2021/07/01 08:32:36;;;;;;;0.10;0.10;;;19.30;99.90;;;;;;5079858;28;20229;-88
2021/07/01 08:35:03;;;;;;;0.20;0.20;;;19.20;99.90;;;;;;5063336;28;20257;-88
2021/07/01 08:37:31;;;;;;;0.20;0.20;;;19.20;99.90;;;;;;5063476;28;20220;-89
2021/07/01 08:40:02;;;;;;;1.80;0.70;;;19.30;99.90;;;;;;5072703;28;20603;-86
2021/07/01 08:42:36;;;;;;;0.10;0.10;;;19.30;99.90;;;;;;5059917;28;20250;-86
2021/07/01 08:45:25;;;;;;;0.10;0.10;;;19.30;99.90;;;;;;5063503;28;20214;-86
2021/07/01 08:47:58;;;;;;;0.20;0.20;;;19.30;99.90;;;;;;5066420;28;20235;-86
2021/07/01 08:50:28;;;;;;;0.23;0.23;;;19.50;99.90;;;;;;5063021;28;20180;-87
2021/07/01 08:53:04;;;;;;;0.10;0.10;;;19.80;99.90;;;;;;5076332;28;20317;-87
2021/07/01 08:55:29;;;;;;;0.40;0.40;;;19.90;99.90;;;;;;5063237;28;20197;-86
2021/07/01 08:57:57;;;;;;;0.10;0.10;;;20.20;99.90;;;;;;5052467;28;20188;-88
2021/07/01 09:00:25;;;;;;;0.10;0.10;;;20.30;99.90;;;;;;5070187;28;20742;-86
2021/07/01 09:03:03;;;;;;;0.20;0.20;;;20.20;99.90;;;;;;5077805;28;20189;-87
2021/07/01 09:05:32;;;;;;;0.20;0.20;;;20.20;99.90;;;;;;5056046;28;20230;-89
2021/07/01 09:08:00;;;;;;;0.20;0.17;;;20.10;99.90;;;;;;5066626;28;20262;-89
2021/07/01 09:10:29;;;;;;;0.20;0.20;;;19.90;99.90;;;;;;5087695;28;20188;-89
2021/07/01 09:12:57;;;;;;;0.30;0.30;;;19.90;99.90;;;;;;5073924;28;20197;-89
2021/07/01 09:15:24;;;;;;;0.63;0.63;;;20.00;99.90;;;;;;5068343;28;20875;-89
2021/07/01 09:17:52;;;;;;;0.20;0.20;;;20.00;99.90;;;;;;5063774;28;20180;-89
2021/07/01 09:20:39;;;;;;;0.10;0.10;;;19.90;99.90;;;;;;5071319;28;20184;-89
2021/07/01 09:23:07;;;;;;;0.10;0.10;;;19.80;99.90;;;;;;5071150;28;20182;-89
2021/07/01 09:25:34;;;;;;;0.20;0.20;;;19.90;99.90;;;;;;5072855;28;20188;-90
2021/07/01 09:28:00;;;;;;;0.77;0.30;;;20.00;99.90;;;;;;5076667;28;20211;-90
2021/07/01 09:30:28;;;;;;;0.20;0.20;;;20.10;99.90;;;;;;5070753;28;20568;-90
2021/07/01 09:32:57;;;;;;;0.17;0.17;;;20.30;99.90;;;;;;5062300;28;20173;-90
2021/07/01 09:35:25;;;;;;;0.10;0.10;;;20.60;99.90;;;;;;5073488;28;20455;-91
2021/07/01 09:37:52;;;;;;;0.20;0.20;;;20.40;99.90;;;;;;5059467;28;20565;-91
2021/07/01 09:40:20;;;;;;;0.53;0.30;;;20.50;99.90;;;;;;5063614;28;20743;-91
2021/07/01 09:42:59;;;;;;;0.20;0.20;;;20.40;99.90;;;;;;5059694;28;20653;-90
2021/07/01 09:45:27;;;;;;;0.40;0.40;;;20.20;99.90;;;;;;5038412;28;20201;-90
2021/07/01 09:48:07;;;;;;;0.30;0.30;;;20.10;99.90;;;;;;5051658;28;20214;-89
2021/07/01 09:50:45;;;;;;;0.23;0.17;;;20.00;99.90;;;;;;5078218;28;20279;-90
2021/07/01 09:53:24;;;;;;;0.20;0.20;;;19.70;99.90;;;;;;5057771;28;20246;-90
2021/07/01 09:55:52;;;;;;;0.20;0.20;;;19.60;99.90;;;;;;5068217;28;20181;-91
2021/07/01 09:58:21;;;;;;;0.10;0.10;;;19.50;99.90;;;;;;5056204;28;20189;-90
2021/07/01 10:00:52;;;;;;;0.30;0.30;;;19.50;99.90;;;;;;5071611;28;20237;-90
2021/07/01 10:03:18;;;;;;;0.40;0.40;;;19.20;99.90;;;;;;5077950;28;20328;-89
2021/07/01 10:05:44;;;;;;;0.37;0.33;;;19.30;99.90;;;;;;5085441;28;20700;-89
2021/07/01 10:08:10;;;;;;;0.13;0.13;;;19.20;99.90;;;;;;5076594;28;20208;-89
2021/07/01 10:13:59;;;;;;;0.57;0.47;;;18.80;99.90;;;;;;5072988;28;20204;-91
2021/07/01 10:16:29;;;;;;;0.23;0.23;;;18.60;99.90;;;;;;5058345;28;20254;-90
2021/07/01 10:18:56;;;;;;;0.33;0.33;;;18.60;99.90;;;;;;5060788;28;20215;-90
2021/07/01 10:21:29;;;;;;;0.20;0.20;;;18.60;99.90;;;;;;5075478;28;20177;-90
2021/07/01 10:24:16;;;;;;;1.83;1.17;;;18.70;99.90;;;;;;5077701;28;20619;-90
2021/07/01 10:26:45;;;;;;;0.20;0.20;;;18.70;99.90;;;;;;5067385;28;20185;-91
2021/07/01 10:29:11;;;;;;;0.20;0.20;;;18.90;99.90;;;;;;5071033;28;20216;-90
2021/07/01 10:31:57;;;;;;;0.40;0.40;;;18.90;99.90;;;;;;5071102;28;20181;-90
2021/07/01 10:34:24;;;;;;;0.10;0.10;;;18.90;99.90;;;;;;5078198;28;20247;-90
2021/07/01 10:37:17;;;;;;;0.20;0.20;;;19.00;99.90;;;;;;5060601;28;20181;-89
2021/07/01 10:46:42;;;;;;;0.53;0.37;;;19.00;99.90;;;;;;5075490;28;20161;-89
2021/07/01 10:49:08;;;;;;;0.30;0.30;;;19.10;99.90;;;;;;5074789;28;20677;-91
2021/07/01 10:52:03;;;;;;;0.20;0.20;;;19.10;99.90;;;;;;5069831;28;20192;-89
2021/07/01 10:54:29;;;;;;;0.50;0.50;;;19.30;99.90;;;;;;5057029;28;20645;-90
2021/07/01 10:57:04;;;;;;;0.40;0.40;;;19.60;99.90;;;;;;5064249;28;20181;-89
2021/07/01 10:59:50;;;;;;;0.40;0.40;;;19.80;99.90;;;;;;5037119;28;20174;-89
2021/07/01 11:02:28;;;;;;;0.63;0.43;;;20.10;99.90;;;;;;5037357;28;20178;-90
2021/07/01 11:05:06;;;;;;;0.30;0.20;;;20.10;99.90;;;;;;5036834;28;20614;-90
2021/07/01 11:07:47;;;;;;;0.20;0.20;;;20.30;99.90;;;;;;5039464;28;20195;-91
2021/07/01 11:10:13;;;;;;;0.17;0.17;;;20.40;99.90;;;;;;5045876;28;20173;-88
2021/07/01 11:12:47;;;;;;;1.17;0.57;;;20.40;99.90;;;;;;5069628;22;20342;-89
2021/07/01 11:15:13;;;;;;;0.23;0.23;;;20.10;99.90;;;;;;5036556;28;20189;-85
2021/07/01 11:17:40;;;;;;;0.93;0.87;;;20.20;99.90;;;;;;5038455;28;20707;-88
2021/07/01 11:20:16;;;;;;;0.40;0.40;;;20.20;99.90;;;;;;5052660;28;20722;-88
2021/07/01 11:22:59;;;;;;;0.33;0.33;;;20.20;99.90;;;;;;5052311;28;20201;-86
2021/07/01 11:25:35;;;;;;;3.60;0.70;;;20.10;99.90;;;;;;5037323;28;20216;-85
2021/07/01 11:28:13;;;;;;;0.23;0.23;;;20.20;99.90;;;;;;5017321;28;20206;-86
2021/07/01 11:30:47;;;;;;;0.70;0.50;;;20.10;99.90;;;;;;5049308;28;20177;-85
2021/07/01 11:33:17;;;;;;;0.27;0.27;;;20.00;99.90;;;;;;5037328;28;20198;-85
2021/07/01 11:35:43;;;;;;;0.60;0.60;;;19.90;99.90;;;;;;5037406;28;20204;-86
2021/07/01 11:38:42;;;;;;;0.60;0.40;;;19.70;99.90;;;;;;5037135;28;20565;-85
2021/07/01 11:41:08;;;;;;;0.53;0.53;;;19.70;99.90;;;;;;5010574;28;20206;-85
2021/07/01 11:43:37;;;;;;;0.40;0.40;;;19.60;99.90;;;;;;5037328;28;20210;-85
2021/07/01 11:46:18;;;;;;;0.40;0.40;;;19.70;99.90;;;;;;5037414;28;20288;-86
2021/07/01 11:48:50;;;;;;;0.60;0.50;;;19.70;99.90;;;;;;5055329;28;20197;-85
2021/07/01 11:51:16;;;;;;;0.40;0.40;;;19.80;99.90;;;;;;5037144;28;20579;-86
2021/07/01 11:53:43;;;;;;;0.40;0.40;;;20.10;99.90;;;;;;5037192;28;20202;-86
2021/07/01 11:56:09;;;;;;;0.63;0.63;;;20.20;99.90;;;;;;5037406;28;20186;-86
2021/07/01 11:58:34;;;;;;;0.63;0.40;;;20.40;99.90;;;;;;5054478;28;20862;-86
2021/07/01 12:01:00;;;;;;;1.43;0.93;;;20.40;99.90;;;;;;5030683;28;20194;-85
2021/07/01 12:03:28;;;;;;;6.10;0.40;;;20.30;99.90;;;;;;5063171;28;20259;-86
2021/07/01 12:05:55;;;;;;;0.77;0.77;;;20.20;99.90;;;;;;5037030;28;20200;-86
2021/07/01 12:08:21;;;;;;;1.10;0.50;;;20.20;99.90;;;;;;5036783;28;20245;-85
2021/07/01 12:10:47;;;;;;;0.63;0.50;;;20.30;99.90;;;;;;5045084;28;20197;-85
2021/07/01 12:13:31;;;;;;;0.50;0.50;;;20.30;99.90;;;;;;5038445;28;20221;-85
2021/07/01 12:16:15;;;;;;;0.20;0.20;;;20.60;99.90;;;;;;5039150;28;20270;-86
2021/07/01 12:18:55;;;;;;;1.03;0.63;;;20.50;99.90;;;;;;5057880;28;20212;-85
2021/07/01 12:21:32;;;;;;;0.40;0.40;;;20.50;99.90;;;;;;5039754;28;20182;-86
2021/07/01 12:24:07;;;;;;;1.13;0.60;;;20.40;99.90;;;;;;5040435;28;20271;-85
2021/07/01 12:26:42;;;;;;;0.40;0.40;;;20.30;99.90;;;;;;5040999;28;20192;-88
2021/07/01 12:29:20;;;;;;;0.23;0.23;;;20.10;99.90;;;;;;5059081;28;20197;-86
2021/07/01 12:31:47;;;;;;;0.23;0.23;;;20.00;99.90;;;;;;5038451;28;20628;-86
2021/07/01 12:34:19;;;;;;;0.27;0.27;;;19.80;99.90;;;;;;5037156;28;20188;-87
2021/07/01 12:36:56;;;;;;;0.23;0.23;;;19.70;99.90;;;;;;5036035;28;20185;-86
2021/07/01 12:39:29;;;;;;;0.30;0.30;;;19.80;99.90;;;;;;5044205;28;20195;-86
2021/07/01 12:42:15;;;;;;;0.83;0.60;;;19.70;99.90;;;;;;5038270;28;20233;-86
2021/07/01 12:44:43;;;;;;;0.33;0.33;;;19.60;99.90;;;;;;5037176;28;20534;-86
2021/07/01 12:47:17;;;;;;;1.50;0.47;;;19.60;99.90;;;;;;5052788;28;20191;-86
2021/07/01 12:49:45;;;;;;;0.20;0.20;;;19.60;99.90;;;;;;5033052;28;20179;-87
2021/07/01 12:52:16;;;;;;;0.77;0.30;;;19.70;99.90;;;;;;5060941;28;20204;-91
2021/07/01 12:54:42;;;;;;;2.20;0.20;;;19.80;99.90;;;;;;5055356;28;20500;-85
2021/07/01 12:57:10;;;;;;;0.30;0.30;;;19.70;99.90;;;;;;5037992;28;20185;-87
2021/07/01 12:59:50;;;;;;;0.53;0.53;;;19.80;99.90;;;;;;5059293;28;20185;-85
2021/07/01 13:02:30;;;;;;;0.40;0.40;;;19.80;99.90;;;;;;5045939;28;20205;-86
2021/07/01 13:05:16;;;;;;;0.37;0.37;;;19.80;99.90;;;;;;5036898;28;20542;-85
2021/07/01 13:07:42;;;;;;;0.20;0.20;;;19.60;99.90;;;;;;5059033;28;20223;-86